Webcam Weerstation Emmen Zuid-West Meer informatie Webcam Weerstation Emmen Zuid-West


Onweer radar Meer informatie blitzortung!


Regen radar  rain snow radar


Lokaal brand risico:
Gebaseerd op waardes van gisteren en vandaag
CBI


Regionaal brand risico: Meer informatie


Lokaal brand risico:
Gebaseerd op actuele waarde
CBI



Het weer levert geen direct gevaar op.    Er zijn geen waarschuwingen afgegeven.

METAR rapporten vliegvelden

   
ETWM - Meppen, Germany
Afstand tot: O 29 km
Gewijzigd: 16-01-2019 19:20
  
  
   Wind: ZW 16.7 km/h
Wind: ZW 16.7 km/h
Temperatuur: 5°C
Voelt als: 2°C
Dauwpunt: 3°C
Vochtigheid: 87%
Barometer: 1001 hPa
Zicht: meer dan 10 km
ETWM 161820Z AUTO 22009KT 9999 // ////// 05/03 Q1001 ///
EHGG - Groningen/Eelde, Netherlands
Afstand tot: NNW 47 km
Gewijzigd: 16-01-2019 19:25
Bewolking  
Bewolking  
   Wind: ZZW 27.8 km/h
Wind: ZZW 27.8 km/h
Temperatuur: 5°C
Voelt als: 0°C
Dauwpunt: 4°C
Vochtigheid: 93%
Barometer: 999 hPa
Bewolking: Bewolking
Zicht: meer dan 10 km
Bewolking: Gedeeltelijk bewolkt 1000 ft,
Bewolking 1200 ft
EHGG 161825Z AUTO 21015KT 180V240 9999 SCT010 OVC012 05/04 Q0999 TEMPO 7000 -RADZ
EDDG - Muenster/Osnabru, Germany
Afstand tot: ZO 87 km
Gewijzigd: 16-01-2019 19:20
Grotendeels bewolkt  
Grotendeels bewolkt  
   Wind: ZZW 20.4 km/h
Wind: ZZW 20.4 km/h
Temperatuur: 6°C
Voelt als: 2°C
Dauwpunt: 1°C
Vochtigheid: 71%
Barometer: 1003 hPa
Bewolking: Grotendeels bewolkt
Zicht: meer dan 10 km
Bewolking: Grotendeels bewolkt 2400 ft
EDDG 161820Z 21011KT 170V230 9999 BKN024 06/01 Q1003 NOSIG
EHLW - Leeuwarden Rnlaf, Netherlands
Afstand tot: NW 93 km
Gewijzigd: 16-01-2019 19:48
Nevel, Bewolking  
Nevel, Bewolking  
   Wind: ZZW 29.6 km/h
Wind: ZZW 29.6 km/h
Temperatuur: 5°C
Voelt als: 0°C
Dauwpunt: 5°C
Vochtigheid: 100%
Barometer: 998 hPa
Bewolking: Bewolking
Zicht: 6 km
Bewolking: Gedeeltelijk bewolkt 600 ft,
Bewolking 700 ft
EHLW 161848Z AUTO 21016KT 170V240 6000 BR SCT006 OVC007 05/05 Q0998 YLO 21016G26KT 4500 RADZ SCT005 BKN007 RMK R23
ETNT - Wittmundhaven(Ga, Germany
Afstand tot: NNO 100 km
Gewijzigd: 16-01-2019 19:20
Wat regen mogelijk, Grotendeels bewolkt  
Wat regen mogelijk, Grotendeels bewolkt  
   Wind: ZW 27.8 km/h<br />Gust to 27.8 km/h
Wind: ZW 27.8 km/h
Gust to 27.8 km/h
Temperatuur: 5°C
Voelt als: 0°C
Dauwpunt: 4°C
Vochtigheid: 93%
Barometer: 998 hPa
Bewolking: Grotendeels bewolkt
Zicht: 6 km
Bewolking: Grotendeels bewolkt 700 ft
ETNT 161820Z 22015G26KT 6000 -RA BKN007 05/04 Q0998 GRN GRN TEMPO YLO
ETND - Diepholz (ger-Af, Germany
Afstand tot: O 104 km
Gewijzigd: 16-01-2019 15:20
Verouderd
Grotendeels bewolkt  
Grotendeels bewolkt  
   Wind: ZW 24.1 km/h
Wind: ZW 24.1 km/h
Temperatuur: 6°C
Voelt als: 2°C
Dauwpunt: 3°C
Vochtigheid: 81%
Barometer: 1004 hPa
Bewolking: Grotendeels bewolkt
Zicht: meer dan 10 km
Bewolking: Grotendeels bewolkt 1600 ft
ETND 161420Z 22013KT 9999 BKN016 06/03 Q1004 WHT
ETNT - Wittmundhaven(Ga, Germany
Afstand tot: NNO 102 km
Gewijzigd: 16-01-2019 19:20
Wat regen mogelijk, Grotendeels bewolkt  
Wat regen mogelijk, Grotendeels bewolkt  
   Wind: ZW 27.8 km/h<br />Gust to 27.8 km/h
Wind: ZW 27.8 km/h
Gust to 27.8 km/h
Temperatuur: 5°C
Voelt als: 0°C
Dauwpunt: 4°C
Vochtigheid: 93%
Barometer: 998 hPa
Bewolking: Grotendeels bewolkt
Zicht: 6 km
Bewolking: Grotendeels bewolkt 700 ft
ETNT 161820Z 22015G26KT 6000 -RA BKN007 05/04 Q0998 GRN GRN TEMPO YLO
EHDL - Deelen Rnlafb, Netherlands
Afstand tot: ZW 103 km
Gewijzigd: 16-01-2019 19:25
Bewolking  
Bewolking  
   Wind: ZZW 25.9 km/h
Wind: ZZW 25.9 km/h
Temperatuur: 5°C
Voelt als: 1°C
Dauwpunt: 2°C
Vochtigheid: 81%
Barometer: 1002 hPa
Bewolking: Bewolking
Zicht: meer dan 10 km
Bewolking: Bewolking 1600 ft
EHDL 161825Z AUTO 20014KT 150V250 9999 OVC016 05/02 Q1002 WHT
EHMA - Awg-1 Sea, Netherlands
Afstand tot: NW 105 km
Gewijzigd: 16-01-2019 19:25
Wat regen mogelijk, Bewolking  
Wat regen mogelijk, Bewolking  
   Wind: varieert 46.3 km/h
Wind: varieert 46.3 km/h
Temperatuur: 6°C
Voelt als: 0°C
Dauwpunt: 5°C
Vochtigheid: 93%
Barometer: 997 hPa
Bewolking: Bewolking
Zicht: 3 km
Bewolking: Licht bewolkt 400 ft,
Grotendeels bewolkt 500 ft,
Bewolking 700 ft
EHMA 161825Z AUTO VRB25KT 3100 -RA FEW004 BKN005 OVC007 06/05 Q0997 W///H///
EDDW - Bremen, Germany
Afstand tot: ONO 135 km
Gewijzigd: 16-01-2019 19:20
Lichte (mot)regen, Grotendeels bewolkt  
Lichte (mot)regen, Grotendeels bewolkt  
   Wind: ZW 24.1 km/h
Wind: ZW 24.1 km/h
Temperatuur: 5°C
Voelt als: 1°C
Dauwpunt: 3°C
Vochtigheid: 87%
Barometer: 1001 hPa
Bewolking: Grotendeels bewolkt
Zicht: meer dan 10 km
Bewolking: Licht bewolkt 1700 ft,
Grotendeels bewolkt 2100 ft
EDDW 161820Z 22013KT 9999 -DZ FEW017 BKN021 05/03 Q1001 TEMPO BKN012
EHVL - Vlieland Island, Netherlands
Afstand tot: WNW 138 km
Gewijzigd: 16-01-2019 19:47
Nevel, Grotendeels bewolkt  
Nevel, Grotendeels bewolkt  
   Wind: ZW 57.4 km/h
Wind: ZW 57.4 km/h
Temperatuur: 7°C
Voelt als: 1°C
Dauwpunt: 6°C
Vochtigheid: 93%
Barometer: 996 hPa
Bewolking: Grotendeels bewolkt
Zicht: 7 km
Bewolking: Licht bewolkt 600 ft,
Grotendeels bewolkt 700 ft,
Grotendeels bewolkt 900 ft
EHVL 161847Z AUTO 22031KT 7000 BR FEW006 BKN007 BKN009 07/06 Q0996 GRN
EDLV - Niederrhein, Germany
Afstand tot: ZZW 139 km
Gewijzigd: 16-01-2019 19:20
Grotendeels bewolkt  
Grotendeels bewolkt  
   Wind: ZW 20.4 km/h<br />Gust to 20.4 km/h
Wind: ZW 20.4 km/h
Gust to 20.4 km/h
Temperatuur: 6°C
Voelt als: 2°C
Dauwpunt: 2°C
Vochtigheid: 76%
Barometer: 1003 hPa
Bewolking: Grotendeels bewolkt
Zicht: meer dan 10 km
Bewolking: Grotendeels bewolkt 2100 ft
EDLV 161820Z 22011G21KT 9999 BKN021 06/02 Q1003
EHKD - De Kooy (navy), Netherlands
Afstand tot: W 144 km
Gewijzigd: 16-01-2019 19:38
Nevel, Bewolking  
Nevel, Bewolking  
   Wind: ZZW 42.6 km/h
Wind: ZZW 42.6 km/h
Temperatuur: 6°C
Voelt als: 1°C
Dauwpunt: 6°C
Vochtigheid: 100%
Barometer: 998 hPa
Bewolking: Bewolking
Zicht: 9 km
Bewolking: Grotendeels bewolkt 700 ft,
Bewolking 800 ft
EHKD 161838Z AUTO 21023KT 180V240 9000 BR BKN007 OVC008 06/06 Q0998 GRN 22025G35KT 8000 OVC007 TEMPO 4000 -DZRA SCT005
EDLW - Dortmund/Wickede, Germany
Afstand tot: ZZO 150 km
Gewijzigd: 16-01-2019 19:20
Bewolking  
Bewolking  
   Wind: ZW 18.5 km/h
Wind: ZW 18.5 km/h
Temperatuur: 4°C
Voelt als: 0°C
Dauwpunt: 1°C
Vochtigheid: 81%
Barometer: 1003 hPa
Bewolking: Bewolking
Zicht: meer dan 10 km
Bewolking: Bewolking 2900 ft
EDLW 161820Z 23010KT 9999 OVC029 04/01 Q1003
EHVK - Volkel Rnlafb, Netherlands
Afstand tot: ZZW 149 km
Gewijzigd: 16-01-2019 19:25
Bewolking  
Bewolking  
   Wind: ZW 27.8 km/h
Wind: ZW 27.8 km/h
Temperatuur: 6°C
Voelt als: 2°C
Dauwpunt: 2°C
Vochtigheid: 76%
Barometer: 1003 hPa
Bewolking: Bewolking
Zicht: meer dan 10 km
Bewolking: Bewolking 1700 ft
EHVK 161825Z AUTO 22015KT 180V250 9999 OVC017 06/02 Q1003 WHT 21015KT 9999 SCT017 BKN020
EDLW - Dortmund/Wickede, Germany
Afstand tot: ZZO 150 km
Gewijzigd: 16-01-2019 19:20
Bewolking  
Bewolking  
   Wind: ZW 18.5 km/h
Wind: ZW 18.5 km/h
Temperatuur: 4°C
Voelt als: 0°C
Dauwpunt: 1°C
Vochtigheid: 81%
Barometer: 1003 hPa
Bewolking: Bewolking
Zicht: meer dan 10 km
Bewolking: Bewolking 2900 ft
EDLW 161820Z 23010KT 9999 OVC029 04/01 Q1003
EHMG - L9-Ff-1 Sea, Netherlands
Afstand tot: NW 155 km
Gewijzigd: 16-01-2019 19:25
Grotendeels bewolkt  
Grotendeels bewolkt  
   Wind: ZW 68.5 km/h
Wind: ZW 68.5 km/h
Temperatuur: 8°C
Voelt als: 2°C
Dauwpunt: 7°C
Vochtigheid: 93%
Barometer: 996 hPa
Bewolking: Grotendeels bewolkt
Zicht: 8 km
Bewolking: Licht bewolkt 300 ft,
Grotendeels bewolkt 500 ft,
Grotendeels bewolkt 900 ft
EHMG 161825Z AUTO 22037KT 8000 FEW003 BKN005 BKN009 08/07 Q0996 W///H///
ETHB - Buckeburg(Ger-Ar, Germany
Afstand tot: OZO 161 km
Gewijzigd: 16-01-2019 19:20
Grotendeels bewolkt  
Grotendeels bewolkt  
   Wind: ZW 16.7 km/h
Wind: ZW 16.7 km/h
Temperatuur: 5°C
Voelt als: 2°C
Dauwpunt: 1°C
Vochtigheid: 76%
Barometer: 1003 hPa
Bewolking: Grotendeels bewolkt
Zicht: meer dan 10 km
Bewolking: Grotendeels bewolkt 2100 ft
ETHB 161820Z 23009KT 9999 BKN021 05/01 Q1003 WHT WHT
ETMN - Nordholz (ger-Na, Germany
Afstand tot: NO 164 km
Gewijzigd: 16-01-2019 19:20
Lichte (mot)regen, Grotendeels bewolkt  
Lichte (mot)regen, Grotendeels bewolkt  
   Wind: ZW 29.6 km/h<br />Gust to 29.6 km/h
Wind: ZW 29.6 km/h
Gust to 29.6 km/h
Temperatuur: 5°C
Voelt als: 0°C
Dauwpunt: 4°C
Vochtigheid: 93%
Barometer: 998 hPa
Bewolking: Grotendeels bewolkt
Zicht: 7 km
Bewolking: Grotendeels bewolkt 800 ft
ETMN 161820Z 23016G29KT 7000 -DZ BKN008 05/04 Q0998 GRN YLO
EDDL - Duesseldorf, Germany
Afstand tot: Z 165 km
Gewijzigd: 16-01-2019 19:20
Gedeeltelijk bewolkt  
Gedeeltelijk bewolkt  
   Wind: Zuiden 20.4 km/h
Wind: Zuiden 20.4 km/h
Temperatuur: 6°C
Voelt als: 2°C
Dauwpunt: 1°C
Vochtigheid: 71%
Barometer: 1004 hPa
Bewolking: Gedeeltelijk bewolkt
Zicht: meer dan 10 km
Bewolking: Gedeeltelijk bewolkt 3500 ft
EDDL 161820Z 19011KT 9999 SCT035 06/01 Q1004 NOSIG
EDLN - Monchengladbach, Germany
Afstand tot: Z 174 km
Gewijzigd: 16-01-2019 19:20
Grotendeels bewolkt  
Grotendeels bewolkt  
   Wind: ZZW 13 km/h
Wind: ZZW 13 km/h
Temperatuur: 5°C
Voelt als: 2°C
Dauwpunt: 2°C
Vochtigheid: 81%
Barometer: 1004 hPa
Bewolking: Grotendeels bewolkt
Zicht: meer dan 10 km
Bewolking: Grotendeels bewolkt 2700 ft
EDLN 161820Z 20007KT 160V240 9999 BKN027 05/02 Q1004

Script ontwikkeld door  Saratoga-weather.org Aangepast voor de template door  Weerstation Leuven

U vindt ons ook hier:

UK Metoffice

European Weather Network

WeatherCloud

Weather Underground

Benelux Weer Netwerk

AWEKAS

Citizen Weather Observer Program (CWOP)

HAMweather, WeatherForYou, PWS Weather

Wetterpage 24

Apparatuur in gebruik:

Weerstation
Davis VP2

Weerprogramma
Meteohub

Hardware
RaspberryPI, Wireless Weather Envoy, MeteoStick, TP-Link MR3020

Leverancier
Weerhuisje.nl weerstations

Davis VP2

Meteohub

RaspberryPI, Wireless Weather Envoy, MeteoStick, TP-Link MR3020

Weerhuisje.nl weerstations